Time;durP1;ratioP1;P1;durP2;ratioP2;P2;SDS_P1;SDS_P2;PMS_P1;PMS_P2;Temp;Humidity;BMP_temperature;BMP_pressure;BME280_temperature;BME280_humidity;BME280_pressure;Samples;Min_cycle;Max_cycle;Signal;HPM_P1;HPM_P2
2023/06/09 00:02:03;;;;;;;5.60;5.10;;;15.40;99.90;;;;;;5068633;28;20239;-81
2023/06/09 00:04:32;;;;;;;5.40;4.90;;;15.50;99.90;;;;;;5075449;28;20184;-80
2023/06/09 00:06:59;;;;;;;5.03;4.53;;;15.40;99.90;;;;;;5075429;28;20617;-80
2023/06/09 00:09:25;;;;;;;5.37;4.37;;;15.40;99.90;;;;;;5057369;28;20192;-81
2023/06/09 00:11:51;;;;;;;4.27;3.97;;;15.20;99.90;;;;;;5075466;28;20189;-80
2023/06/09 00:14:17;;;;;;;5.97;5.13;;;15.20;99.90;;;;;;5057544;28;20165;-80
2023/06/09 00:16:46;;;;;;;5.47;4.90;;;15.20;99.90;;;;;;5057612;28;20639;-80
2023/06/09 00:19:16;;;;;;;6.07;5.37;;;15.10;99.90;;;;;;5075580;28;20173;-81
2023/06/09 00:21:47;;;;;;;5.40;4.87;;;15.10;99.90;;;;;;5057304;28;20200;-80
2023/06/09 00:24:12;;;;;;;5.03;4.63;;;15.10;99.90;;;;;;5075078;28;20184;-81
2023/06/09 00:26:38;;;;;;;5.63;5.07;;;15.20;99.90;;;;;;5057380;28;20204;-81
2023/06/09 00:29:03;;;;;;;5.50;4.93;;;15.30;99.90;;;;;;5057372;28;20192;-81
2023/06/09 00:31:29;;;;;;;5.33;4.83;;;15.30;99.90;;;;;;5056975;28;20197;-80
2023/06/09 00:33:55;;;;;;;4.93;4.50;;;15.10;99.90;;;;;;5074963;28;20269;-81
2023/06/09 00:36:21;;;;;;;4.90;4.50;;;15.10;99.90;;;;;;5074996;28;20173;-81
2023/06/09 00:38:46;;;;;;;4.87;4.40;;;15.10;99.90;;;;;;5074956;28;20184;-81
2023/06/09 00:41:12;;;;;;;5.07;4.60;;;15.10;99.90;;;;;;5056781;28;20200;-80
2023/06/09 00:43:37;;;;;;;5.70;5.20;;;15.00;99.90;;;;;;5056788;28;20173;-81
2023/06/09 00:46:06;;;;;;;8.00;5.20;;;14.80;99.90;;;;;;5074736;28;20220;-81
2023/06/09 00:48:31;;;;;;;5.17;4.70;;;14.80;99.90;;;;;;5074694;28;20699;-80
2023/06/09 00:50:57;;;;;;;6.33;5.57;;;14.80;99.90;;;;;;5074181;28;20224;-81
2023/06/09 00:53:26;;;;;;;5.10;4.70;;;14.80;99.90;;;;;;5074802;28;20236;-80
2023/06/09 00:55:52;;;;;;;6.07;5.47;;;14.70;99.90;;;;;;5074439;28;20177;-81
2023/06/09 00:58:18;;;;;;;5.63;5.17;;;14.70;99.90;;;;;;5056439;28;20176;-80
2023/06/09 01:00:43;;;;;;;5.30;4.80;;;14.60;99.90;;;;;;5056173;28;20184;-80
2023/06/09 01:03:09;;;;;;;5.23;4.73;;;14.50;99.90;;;;;;5074343;28;20188;-81
2023/06/09 01:05:37;;;;;;;7.10;5.73;;;14.40;99.90;;;;;;5073779;28;20172;-80
2023/06/09 01:08:23;;;;;;;5.97;5.37;;;14.20;99.90;;;;;;5074079;28;20180;-80
2023/06/09 01:10:54;;;;;;;6.53;5.87;;;14.10;99.90;;;;;;5055893;28;20165;-81
2023/06/09 01:13:42;;;;;;;6.23;5.63;;;14.00;99.90;;;;;;5056457;28;20172;-80
2023/06/09 01:16:34;;;;;;;6.20;5.53;;;14.00;99.90;;;;;;5056343;28;20182;-81
2023/06/09 01:19:05;;;;;;;5.27;4.77;;;14.10;99.90;;;;;;5074115;28;20173;-81
2023/06/09 01:21:40;;;;;;;5.23;4.73;;;14.10;99.90;;;;;;5073966;28;20195;-80
2023/06/09 01:24:45;;;;;;;5.50;5.00;;;14.20;99.90;;;;;;5055826;28;20172;-80
2023/06/09 01:27:12;;;;;;;5.77;5.27;;;14.40;99.90;;;;;;5074158;28;20196;-80
2023/06/09 01:29:40;;;;;;;5.40;5.00;;;14.20;99.90;;;;;;5073833;28;20204;-80
2023/06/09 01:32:07;;;;;;;5.87;5.30;;;14.10;99.90;;;;;;5073621;28;20246;-80
2023/06/09 01:34:33;;;;;;;5.50;5.00;;;14.30;99.90;;;;;;5055648;28;20172;-81
2023/06/09 01:36:59;;;;;;;6.37;5.77;;;14.40;99.90;;;;;;5055714;28;20209;-80
2023/06/09 01:39:26;;;;;;;5.97;5.33;;;14.20;99.90;;;;;;5073041;28;20173;-80
2023/06/09 01:41:57;;;;;;;5.70;5.20;;;14.20;99.90;;;;;;5055248;28;20699;-81
2023/06/09 01:44:23;;;;;;;5.60;5.07;;;14.20;99.90;;;;;;5073533;28;20179;-81
2023/06/09 01:46:48;;;;;;;5.20;4.70;;;14.20;99.90;;;;;;5055547;28;20683;-80
2023/06/09 01:49:21;;;;;;;7.17;5.67;;;14.00;99.90;;;;;;5055513;28;20173;-80
2023/06/09 01:52:16;;;;;;;5.13;4.70;;;13.90;99.90;;;;;;5055141;28;20204;-80
2023/06/09 01:54:55;;;;;;;5.20;4.50;;;13.80;99.90;;;;;;5073437;28;20243;-81
2023/06/09 01:57:26;;;;;;;6.10;5.40;;;13.70;99.90;;;;;;5073682;28;20180;-80
2023/06/09 01:59:55;;;;;;;5.67;5.17;;;13.60;99.90;;;;;;5055395;28;20184;-80
2023/06/09 02:02:24;;;;;;;5.80;5.20;;;13.70;99.90;;;;;;5055547;28;20193;-81
2023/06/09 02:04:53;;;;;;;5.53;5.03;;;13.70;99.90;;;;;;5073404;28;20180;-81
2023/06/09 02:07:19;;;;;;;6.83;6.10;;;13.70;99.90;;;;;;5055236;28;20201;-80
2023/06/09 02:09:45;;;;;;;5.93;4.83;;;13.70;99.90;;;;;;5055259;28;20595;-81
2023/06/09 02:12:11;;;;;;;6.07;5.47;;;13.70;99.90;;;;;;5055209;28;20689;-80
2023/06/09 02:14:37;;;;;;;6.00;5.40;;;13.80;99.90;;;;;;5073613;28;20197;-81
2023/06/09 02:17:03;;;;;;;4.90;4.50;;;13.80;99.90;;;;;;5055324;28;20177;-80
2023/06/09 02:19:30;;;;;;;5.97;5.40;;;13.70;99.90;;;;;;5073489;28;20231;-80
2023/06/09 02:21:57;;;;;;;6.00;5.37;;;13.60;99.90;;;;;;5055042;28;20262;-81
2023/06/09 02:24:27;;;;;;;5.47;4.97;;;13.60;99.90;;;;;;5055253;28;20291;-80
2023/06/09 02:26:53;;;;;;;5.37;4.87;;;13.70;99.90;;;;;;5073324;28;20207;-81
2023/06/09 02:29:19;;;;;;;5.43;4.93;;;13.60;99.90;;;;;;5055015;28;20169;-81
2023/06/09 02:31:44;;;;;;;5.57;5.07;;;13.70;99.90;;;;;;5054849;28;20297;-81
2023/06/09 02:34:10;;;;;;;6.00;5.47;;;13.70;99.90;;;;;;5072958;28;20173;-81
2023/06/09 02:36:37;;;;;;;6.73;5.90;;;13.70;99.90;;;;;;5055062;28;20208;-80
2023/06/09 02:39:03;;;;;;;5.53;5.03;;;13.80;99.90;;;;;;5055219;28;20226;-80
2023/06/09 02:41:29;;;;;;;5.90;5.13;;;13.90;99.90;;;;;;5072822;28;20197;-81
2023/06/09 02:43:54;;;;;;;5.73;5.23;;;13.80;99.90;;;;;;5073430;28;20187;-80
2023/06/09 02:46:22;;;;;;;5.90;5.40;;;13.80;99.90;;;;;;5073487;28;20200;-81
2023/06/09 02:48:48;;;;;;;5.93;5.40;;;13.60;99.90;;;;;;5055389;28;20227;-81
2023/06/09 02:51:14;;;;;;;5.60;5.10;;;13.70;99.90;;;;;;5058092;28;20251;-80
2023/06/09 02:53:40;;;;;;;5.77;4.80;;;13.70;99.90;;;;;;5058423;28;20169;-80
2023/06/09 02:56:05;;;;;;;6.10;5.50;;;13.60;99.90;;;;;;5058890;28;20201;-80
2023/06/09 02:58:31;;;;;;;5.90;5.10;;;13.60;99.90;;;;;;5076429;28;20165;-80
2023/06/09 03:00:56;;;;;;;5.77;5.27;;;13.50;99.90;;;;;;5076497;28;20251;-80
2023/06/09 03:03:22;;;;;;;5.70;5.20;;;13.40;99.90;;;;;;5076544;28;20597;-80
2023/06/09 03:05:49;;;;;;;5.63;5.10;;;13.50;99.90;;;;;;5058516;28;20505;-81
2023/06/09 03:08:15;;;;;;;6.10;5.50;;;13.60;99.90;;;;;;5075864;28;20173;-80
2023/06/09 03:10:40;;;;;;;6.23;5.63;;;13.60;99.90;;;;;;5057802;28;20176;-81
2023/06/09 03:13:06;;;;;;;5.30;4.80;;;13.70;99.90;;;;;;5076188;28;20171;-80
2023/06/09 03:15:33;;;;;;;5.07;4.57;;;13.80;99.90;;;;;;5075996;28;20169;-81
2023/06/09 03:17:59;;;;;;;5.70;5.10;;;13.80;99.90;;;;;;5076435;28;20204;-81
2023/06/09 03:20:24;;;;;;;5.60;5.10;;;13.70;99.90;;;;;;5076108;28;20169;-81
2023/06/09 03:22:52;;;;;;;5.93;5.30;;;13.60;99.90;;;;;;5058334;28;20189;-81
2023/06/09 03:25:19;;;;;;;4.37;3.97;;;13.60;99.90;;;;;;5075738;28;20173;-80
2023/06/09 03:27:45;;;;;;;5.20;4.70;;;13.60;99.90;;;;;;5058009;28;20201;-81
2023/06/09 03:30:11;;;;;;;6.27;5.67;;;13.50;99.90;;;;;;5074802;28;20175;-81
2023/06/09 03:32:36;;;;;;;6.50;5.70;;;13.30;99.90;;;;;;5057950;28;20196;-81
2023/06/09 03:35:02;;;;;;;6.00;5.50;;;13.10;99.90;;;;;;5058451;28;20173;-81
2023/06/09 03:37:28;;;;;;;5.33;4.83;;;13.20;99.90;;;;;;5057958;28;20174;-80
2023/06/09 03:39:53;;;;;;;6.17;5.67;;;13.00;99.90;;;;;;5075569;28;20530;-80
2023/06/09 03:42:19;;;;;;;6.70;6.10;;;12.90;99.90;;;;;;5074649;28;20193;-81
2023/06/09 03:44:45;;;;;;;6.60;6.00;;;12.80;99.90;;;;;;5058243;28;20184;-81
2023/06/09 03:47:10;;;;;;;6.10;5.50;;;12.90;99.90;;;;;;5057366;28;20205;-80
2023/06/09 03:49:36;;;;;;;6.83;5.73;;;12.90;99.90;;;;;;5075371;28;20180;-78
2023/06/09 03:52:02;;;;;;;7.67;6.97;;;13.00;99.90;;;;;;5057426;28;20208;-80
2023/06/09 03:54:28;;;;;;;7.00;6.17;;;13.10;99.90;;;;;;5057349;28;20173;-80
2023/06/09 03:56:53;;;;;;;8.83;7.33;;;13.10;99.90;;;;;;5074120;28;20187;-80
2023/06/09 03:59:19;;;;;;;7.80;6.57;;;13.10;99.90;;;;;;5072263;28;20548;-80
2023/06/09 04:01:44;;;;;;;6.83;6.10;;;13.20;99.90;;;;;;5074749;28;20308;-80
2023/06/09 04:04:10;;;;;;;6.87;6.10;;;13.20;99.90;;;;;;5073799;28;20169;-81
2023/06/09 04:06:37;;;;;;;7.37;6.40;;;13.10;99.90;;;;;;5057295;28;20195;-81
2023/06/09 04:09:03;;;;;;;7.20;6.50;;;13.10;99.90;;;;;;5075135;28;20165;-81
2023/06/09 04:11:30;;;;;;;8.87;6.90;;;13.10;99.90;;;;;;5057095;28;20250;-80
2023/06/09 04:13:56;;;;;;;7.00;6.30;;;13.10;99.90;;;;;;5074797;28;20166;-81
2023/06/09 04:16:21;;;;;;;6.97;6.23;;;13.10;99.90;;;;;;5075458;28;20173;-80
2023/06/09 04:18:47;;;;;;;9.97;6.60;;;13.20;99.90;;;;;;5075049;28;20169;-81
2023/06/09 04:21:13;;;;;;;8.43;6.77;;;13.00;99.90;;;;;;5074544;28;20200;-80
2023/06/09 04:23:39;;;;;;;8.60;7.17;;;13.00;99.90;;;;;;5057172;28;20180;-80
2023/06/09 04:26:08;;;;;;;6.90;6.20;;;13.10;99.90;;;;;;5075268;28;20201;-80
2023/06/09 04:28:34;;;;;;;7.20;6.50;;;13.10;99.90;;;;;;5075116;28;20177;-80
2023/06/09 04:31:00;;;;;;;7.47;6.67;;;13.10;99.90;;;;;;5056923;28;20197;-80
2023/06/09 04:33:29;;;;;;;6.70;6.10;;;13.20;99.90;;;;;;5057097;28;20218;-80
2023/06/09 04:35:54;;;;;;;6.50;5.80;;;13.20;99.90;;;;;;5073503;28;20259;-81
2023/06/09 04:38:23;;;;;;;6.13;5.53;;;13.30;99.90;;;;;;5056621;28;20204;-81
2023/06/09 04:40:49;;;;;;;6.67;5.67;;;13.30;99.90;;;;;;5074314;28;20177;-81
2023/06/09 04:43:16;;;;;;;7.43;6.73;;;13.30;99.90;;;;;;5074532;28;20623;-80
2023/06/09 04:45:43;;;;;;;7.53;6.23;;;13.30;99.90;;;;;;5074666;28;20177;-80
2023/06/09 04:48:09;;;;;;;7.70;7.00;;;13.30;99.90;;;;;;5074380;28;20173;-81
2023/06/09 04:50:36;;;;;;;7.57;6.50;;;13.40;99.90;;;;;;5056013;28;20180;-81
2023/06/09 04:53:03;;;;;;;9.13;6.77;;;13.50;99.90;;;;;;5074585;28;20233;-80
2023/06/09 04:55:30;;;;;;;6.43;5.83;;;13.40;99.90;;;;;;5072987;28;20181;-81
2023/06/09 04:57:56;;;;;;;7.73;6.97;;;13.40;99.90;;;;;;5056138;28;20177;-80
2023/06/09 05:00:30;;;;;;;8.23;7.43;;;13.50;99.90;;;;;;5073785;28;20169;-80
2023/06/09 05:03:05;;;;;;;8.10;7.30;;;13.50;99.90;;;;;;5056354;28;20203;-80
2023/06/09 05:05:30;;;;;;;8.13;7.20;;;13.50;99.90;;;;;;5056068;28;20172;-80
2023/06/09 05:07:56;;;;;;;8.77;7.97;;;13.40;99.90;;;;;;5056228;28;20228;-80
2023/06/09 05:10:22;;;;;;;8.37;7.57;;;13.40;99.90;;;;;;5074122;28;20177;-81
2023/06/09 05:12:48;;;;;;;9.60;8.47;;;13.40;99.90;;;;;;5074106;28;20260;-81
2023/06/09 05:15:14;;;;;;;8.87;8.07;;;13.50;99.90;;;;;;5055938;28;20169;-81
2023/06/09 05:17:42;;;;;;;8.43;7.63;;;13.60;99.90;;;;;;5056596;28;20179;-81
2023/06/09 05:20:09;;;;;;;8.23;7.37;;;13.60;99.90;;;;;;5073783;28;20662;-81
2023/06/09 05:22:36;;;;;;;8.17;7.40;;;13.70;99.90;;;;;;5073962;28;20193;-81
2023/06/09 05:25:02;;;;;;;8.57;7.77;;;13.70;99.90;;;;;;5073689;28;20205;-81
2023/06/09 05:27:28;;;;;;;8.47;7.67;;;13.70;99.90;;;;;;5055589;28;20228;-81
2023/06/09 05:29:53;;;;;;;8.37;7.67;;;13.80;99.90;;;;;;5073912;28;20196;-81
2023/06/09 05:32:19;;;;;;;8.47;7.67;;;13.90;99.90;;;;;;5056215;28;20201;-81
2023/06/09 05:34:45;;;;;;;8.50;7.60;;;14.00;99.90;;;;;;5073688;28;20194;-81
2023/06/09 05:37:13;;;;;;;8.83;8.03;;;14.00;99.90;;;;;;5056060;28;20197;-82
2023/06/09 05:39:39;;;;;;;9.23;8.23;;;14.10;99.90;;;;;;5073957;28;20172;-81
2023/06/09 05:42:06;;;;;;;9.00;7.70;;;14.10;99.90;;;;;;5073979;28;20197;-81
2023/06/09 05:44:32;;;;;;;8.57;7.77;;;14.20;99.90;;;;;;5073966;28;20239;-81
2023/06/09 05:46:57;;;;;;;8.50;7.70;;;14.30;99.90;;;;;;5056028;28;20197;-82
2023/06/09 05:49:23;;;;;;;8.90;7.87;;;14.30;99.90;;;;;;5055978;28;20555;-81
2023/06/09 05:51:48;;;;;;;8.97;8.17;;;14.30;99.90;;;;;;5062538;22;20222;-82
2023/06/09 05:54:14;;;;;;;9.03;8.13;;;14.40;99.90;;;;;;5016546;28;20265;-79
2023/06/09 05:56:39;;;;;;;7.90;7.20;;;14.40;99.90;;;;;;5016993;28;20178;-80
2023/06/09 05:59:05;;;;;;;6.77;6.07;;;14.50;99.90;;;;;;5015873;28;20171;-79
2023/06/09 06:01:31;;;;;;;6.70;6.10;;;14.80;99.90;;;;;;5014768;28;20206;-80
2023/06/09 06:03:57;;;;;;;7.63;6.97;;;15.10;99.90;;;;;;5032671;28;20174;-79
2023/06/09 06:06:22;;;;;;;8.63;7.83;;;15.40;99.90;;;;;;5032336;28;20216;-77
2023/06/09 06:08:48;;;;;;;7.67;7.03;;;15.50;99.90;;;;;;5033254;28;20180;-78
2023/06/09 06:11:14;;;;;;;6.97;6.27;;;15.70;99.90;;;;;;5014905;28;20220;-79
2023/06/09 06:13:39;;;;;;;6.93;6.33;;;15.90;99.90;;;;;;5015934;28;20202;-79
2023/06/09 06:16:05;;;;;;;7.20;6.50;;;16.00;99.90;;;;;;5016861;28;20622;-77
2023/06/09 06:18:30;;;;;;;8.60;7.70;;;16.20;99.90;;;;;;5033763;28;20186;-78
2023/06/09 06:20:56;;;;;;;13.43;8.53;;;16.30;99.90;;;;;;5016013;28;20209;-78
2023/06/09 06:23:21;;;;;;;11.33;8.63;;;16.20;99.90;;;;;;5033453;28;20260;-78
2023/06/09 06:25:47;;;;;;;9.33;8.43;;;16.20;99.90;;;;;;5018768;28;20257;-77
2023/06/09 06:28:14;;;;;;;9.37;8.57;;;16.30;99.90;;;;;;5020159;28;20170;-78
2023/06/09 06:30:40;;;;;;;9.63;8.63;;;16.30;99.90;;;;;;5038045;28;20171;-78
2023/06/09 06:33:06;;;;;;;9.60;8.70;;;16.40;99.90;;;;;;5020078;28;20198;-78
2023/06/09 06:35:32;;;;;;;9.50;8.60;;;16.40;99.90;;;;;;5038315;28;20265;-78
2023/06/09 06:37:57;;;;;;;9.83;8.83;;;16.40;99.90;;;;;;5038247;28;20235;-78
2023/06/09 06:40:24;;;;;;;10.70;9.70;;;16.50;99.90;;;;;;5019742;28;20648;-78
2023/06/09 06:42:51;;;;;;;9.67;8.77;;;16.50;99.90;;;;;;5019429;28;20194;-78
2023/06/09 06:45:17;;;;;;;9.63;8.33;;;16.60;99.90;;;;;;5037952;28;20170;-77
2023/06/09 06:47:43;;;;;;;9.23;8.43;;;16.80;99.90;;;;;;5038479;28;20271;-78
2023/06/09 06:50:09;;;;;;;10.13;9.13;;;16.90;99.90;;;;;;5020002;28;20220;-78
2023/06/09 06:52:36;;;;;;;10.63;9.70;;;17.00;99.90;;;;;;5020163;28;20210;-78
2023/06/09 06:55:01;;;;;;;10.17;9.17;;;16.90;99.90;;;;;;5020773;28;20198;-78
2023/06/09 06:57:27;;;;;;;9.83;8.90;;;17.00;99.90;;;;;;5020605;28;20171;-80
2023/06/09 06:59:53;;;;;;;11.30;10.20;;;17.10;99.90;;;;;;5021618;28;20174;-78
2023/06/09 07:02:18;;;;;;;10.60;9.60;;;17.30;99.90;;;;;;5038994;28;20205;-78
2023/06/09 07:04:44;;;;;;;11.10;9.90;;;17.40;99.90;;;;;;5021790;28;20206;-78
2023/06/09 07:07:10;;;;;;;10.50;9.50;;;17.50;99.90;;;;;;5021183;28;20209;-78
2023/06/09 07:09:37;;;;;;;10.73;9.67;;;17.50;99.90;;;;;;5038007;28;20562;-76
2023/06/09 07:12:03;;;;;;;10.43;9.53;;;17.60;99.90;;;;;;5038079;28;20194;-77
2023/06/09 07:14:30;;;;;;;11.27;10.13;;;17.60;99.90;;;;;;5020606;28;20182;-78
2023/06/09 07:16:56;;;;;;;11.00;10.00;;;17.70;99.90;;;;;;5039463;28;20205;-82
2023/06/09 07:19:21;;;;;;;11.57;10.37;;;17.50;99.90;;;;;;5022778;28;20193;-78
2023/06/09 07:21:47;;;;;;;11.50;10.30;;;17.50;99.90;;;;;;5026824;28;20198;-78
2023/06/09 07:24:13;;;;;;;11.03;10.00;;;17.40;99.90;;;;;;5021079;28;20178;-77
2023/06/09 07:26:38;;;;;;;11.20;10.10;;;17.60;99.90;;;;;;5041629;28;20229;-79
2023/06/09 07:29:04;;;;;;;12.40;11.10;;;17.60;99.90;;;;;;5021279;28;20197;-79
2023/06/09 07:31:30;;;;;;;11.83;10.73;;;17.60;99.90;;;;;;5019611;28;20198;-80
2023/06/09 07:33:56;;;;;;;11.07;10.07;;;17.90;99.90;;;;;;5038129;28;20264;-79
2023/06/09 07:36:22;;;;;;;11.93;10.80;;;18.10;99.90;;;;;;5018719;28;20174;-80
2023/06/09 07:38:47;;;;;;;12.07;10.83;;;18.20;99.90;;;;;;5036655;28;20728;-78
2023/06/09 07:41:13;;;;;;;12.20;10.87;;;18.50;99.90;;;;;;5035142;28;20178;-79
2023/06/09 07:43:39;;;;;;;12.63;11.33;;;18.70;99.90;;;;;;5034868;28;20181;-79
2023/06/09 07:46:05;;;;;;;11.47;10.37;;;18.80;99.90;;;;;;5017271;28;20233;-77
2023/06/09 07:48:30;;;;;;;11.50;10.43;;;18.70;99.90;;;;;;5017254;28;20214;-78
2023/06/09 07:50:56;;;;;;;10.40;9.50;;;18.80;99.90;;;;;;5034846;28;20170;-78
2023/06/09 07:53:22;;;;;;;11.50;10.37;;;18.60;99.90;;;;;;5034911;28;20229;-78
2023/06/09 07:55:48;;;;;;;11.83;10.63;;;18.70;99.90;;;;;;5034899;28;20175;-79
2023/06/09 07:58:14;;;;;;;12.13;10.93;;;18.70;99.90;;;;;;5034067;28;20257;-78
2023/06/09 08:00:40;;;;;;;12.57;11.27;;;18.80;99.90;;;;;;5013421;28;20225;-78
2023/06/09 08:03:05;;;;;;;12.13;10.93;;;19.00;99.90;;;;;;5017489;28;20186;-78
2023/06/09 08:05:31;;;;;;;11.83;10.73;;;19.00;99.90;;;;;;5017711;28;20582;-78
2023/06/09 08:07:57;;;;;;;11.77;10.77;;;19.10;99.90;;;;;;5017424;28;20198;-77
2023/06/09 08:10:23;;;;;;;11.73;10.53;;;19.20;99.90;;;;;;5016828;28;20174;-78
2023/06/09 08:12:52;;;;;;;11.83;10.73;;;19.10;99.90;;;;;;5034658;28;20204;-77
2023/06/09 08:15:17;;;;;;;10.80;9.80;;;19.10;99.90;;;;;;5034648;28;20166;-78
2023/06/09 08:17:43;;;;;;;11.33;10.20;;;19.40;99.90;;;;;;5017029;28;20184;-78
2023/06/09 08:20:09;;;;;;;11.43;10.50;;;19.60;99.90;;;;;;5016846;28;20652;-78
2023/06/09 08:22:35;;;;;;;10.67;9.67;;;19.80;99.90;;;;;;5016757;28;20225;-78
2023/06/09 08:25:00;;;;;;;10.87;9.97;;;19.90;1.00;;;;;;5035036;28;20597;-78
2023/06/09 08:27:26;;;;;;;10.83;9.73;;;20.10;1.00;;;;;;5017220;28;20198;-78
2023/06/09 08:29:52;;;;;;;10.43;9.50;;;20.20;1.20;;;;;;5034771;28;20539;-77
2023/06/09 08:32:17;;;;;;;10.37;9.37;;;20.40;1.00;;;;;;5016723;28;20187;-79
2023/06/09 08:34:43;;;;;;;10.13;9.23;;;20.40;1.00;;;;;;5016859;28;20546;-78
2023/06/09 08:37:09;;;;;;;10.55;9.40;;;20.60;1.00;;;;;;5016667;28;20184;-78
2023/06/09 08:39:35;;;;;;;9.80;8.70;;;20.80;1.00;;;;;;5016868;28;20201;-78
2023/06/09 08:42:07;;;;;;;9.77;8.98;;;20.90;1.00;;;;;;5034912;28;20194;-78
2023/06/09 08:44:40;;;;;;;10.68;9.60;;;21.20;1.00;;;;;;5016619;28;20253;-78
2023/06/09 08:47:08;;;;;;;9.98;8.27;;;21.30;1.00;;;;;;5016916;28;20230;-79
2023/06/09 08:49:34;;;;;;;8.80;8.00;;;21.50;99.90;;;;;;5016530;28;20177;-77
2023/06/09 08:52:03;;;;;;;8.95;8.15;;;21.70;1.00;;;;;;5034258;28;20293;-79
2023/06/09 08:54:30;;;;;;;10.05;7.68;;;21.80;99.90;;;;;;5016537;28;20174;-79
2023/06/09 08:56:56;;;;;;;8.05;7.25;;;22.00;1.00;;;;;;5035141;28;20185;-79
2023/06/09 08:59:23;;;;;;;8.18;7.47;;;22.20;1.00;;;;;;5034655;28;20182;-79
2023/06/09 09:01:51;;;;;;;9.07;8.27;;;22.30;1.00;;;;;;5034446;28;20224;-79
2023/06/09 09:04:17;;;;;;;8.43;7.72;;;22.60;1.00;;;;;;5017049;28;20170;-79
2023/06/09 09:06:43;;;;;;;7.78;7.07;;;22.80;1.00;;;;;;5016710;28;20202;-78
2023/06/09 09:09:08;;;;;;;7.57;6.75;;;23.00;99.90;;;;;;5034756;28;20167;-80
2023/06/09 09:11:35;;;;;;;7.50;6.82;;;23.10;1.00;;;;;;5034819;28;20248;-79
2023/06/09 09:14:11;;;;;;;8.18;7.38;;;23.30;99.90;;;;;;5016946;28;20257;-80
2023/06/09 09:16:36;;;;;;;7.38;6.72;;;23.40;18.00;;;;;;5016903;28;20178;-79
2023/06/09 09:19:03;;;;;;;7.25;6.65;;;23.50;29.80;;;;;;5016574;28;20201;-79
2023/06/09 09:21:29;;;;;;;9.93;7.03;;;23.60;99.90;;;;;;5016014;28;20202;-78
2023/06/09 09:24:06;;;;;;;7.45;6.75;;;23.80;99.90;;;;;;5034634;28;20232;-79
2023/06/09 09:26:32;;;;;;;7.70;7.00;;;23.80;99.90;;;;;;5033925;28;20201;-78
2023/06/09 09:29:15;;;;;;;7.30;6.70;;;24.00;99.90;;;;;;5016515;28;20273;-79
2023/06/09 09:31:41;;;;;;;6.93;6.43;;;24.10;1.00;;;;;;5016543;28;20190;-78
2023/06/09 09:34:14;;;;;;;7.13;6.53;;;24.30;99.90;;;;;;5018498;28;20228;-78
2023/06/09 09:36:44;;;;;;;7.57;6.63;;;24.50;99.90;;;;;;5016786;28;20178;-78
2023/06/09 09:39:09;;;;;;;7.53;6.85;;;24.70;1.00;;;;;;5016985;28;20173;-78
2023/06/09 09:41:35;;;;;;;6.75;6.20;;;24.70;1.00;;;;;;5034523;28;20653;-78
2023/06/09 09:44:01;;;;;;;6.60;6.10;;;24.90;99.90;;;;;;5019432;28;20182;-78
2023/06/09 09:46:26;;;;;;;6.93;6.30;;;24.80;1.00;;;;;;5036540;28;20205;-80
2023/06/09 09:48:54;;;;;;;6.72;6.13;;;24.50;1.00;;;;;;5019104;28;20657;-79
2023/06/09 09:51:20;;;;;;;6.80;6.20;;;24.50;1.00;;;;;;5018390;28;20568;-80
2023/06/09 09:53:47;;;;;;;8.23;6.60;;;24.20;1.00;;;;;;5036244;28;20178;-82
2023/06/09 09:56:14;;;;;;;7.05;6.45;;;24.10;1.00;;;;;;5036378;28;20595;-80
2023/06/09 09:58:42;;;;;;;6.90;6.22;;;24.00;1.00;;;;;;5018581;28;20175;-81
2023/06/09 10:01:10;;;;;;;7.30;6.60;;;23.90;1.00;;;;;;5016888;28;20178;-80
2023/06/09 10:03:41;;;;;;;7.57;6.95;;;23.90;99.90;;;;;;5026077;28;20212;-79
2023/06/09 10:06:11;;;;;;;7.32;6.63;;;24.10;99.90;;;;;;5033858;28;20214;-79
2023/06/09 10:08:40;;;;;;;6.43;5.93;;;24.20;99.90;;;;;;5032699;28;20174;-80
2023/06/09 10:11:07;;;;;;;6.70;6.10;;;24.50;99.90;;;;;;5032670;28;20170;-80
2023/06/09 10:13:33;;;;;;;6.40;5.90;;;24.50;1.00;;;;;;5032133;28;20246;-79
2023/06/09 10:15:59;;;;;;;6.63;5.88;;;24.80;1.00;;;;;;5033892;28;20189;-79
2023/06/09 10:18:25;;;;;;;6.28;5.78;;;25.10;1.00;;;;;;5032334;28;20275;-79
2023/06/09 10:20:52;;;;;;;6.85;6.18;;;25.20;1.00;;;;;;5032017;28;20174;-79
2023/06/09 10:23:18;;;;;;;6.40;5.80;;;25.10;1.00;;;;;;5032030;28;20201;-80
2023/06/09 10:25:51;;;;;;;6.70;6.10;;;24.90;99.90;;;;;;5032425;28;20178;-79
2023/06/09 10:28:18;;;;;;;6.85;6.20;;;24.60;99.90;;;;;;5034010;28;20166;-80
2023/06/09 10:30:47;;;;;;;7.28;6.60;;;24.40;93.10;;;;;;5033210;28;20170;-80
2023/06/09 10:33:18;;;;;;;7.32;6.63;;;24.20;1.00;;;;;;5032452;28;20186;-81
2023/06/09 10:35:47;;;;;;;7.90;7.10;;;24.30;99.90;;;;;;5033929;28;20186;-81
2023/06/09 10:38:40;;;;;;;7.00;6.40;;;24.70;1.00;;;;;;5032589;28;20174;-81
2023/06/09 10:41:45;;;;;;;7.03;6.43;;;24.60;1.00;;;;;;5033619;28;20147;-81
2023/06/09 10:44:29;;;;;;;7.13;6.43;;;24.30;99.90;;;;;;5024480;28;20178;-80
2023/06/09 10:46:55;;;;;;;7.65;6.93;;;24.10;99.90;;;;;;5032452;28;20204;-79
2023/06/09 10:49:26;;;;;;;7.57;6.97;;;24.10;1.00;;;;;;5036001;28;20171;-79
2023/06/09 10:51:55;;;;;;;7.75;7.05;;;24.30;99.90;;;;;;5034772;28;20550;-78
2023/06/09 10:54:25;;;;;;;7.68;7.00;;;24.60;1.00;;;;;;5034277;28;20225;-77
2023/06/09 10:56:57;;;;;;;9.63;6.90;;;24.60;1.00;;;;;;5036222;28;20171;-79
2023/06/09 10:59:25;;;;;;;7.22;6.63;;;24.50;1.00;;;;;;5037458;28;20167;-78
2023/06/09 11:02:03;;;;;;;7.50;6.80;;;24.20;99.90;;;;;;5036093;28;20240;-78
2023/06/09 11:04:37;;;;;;;8.05;7.25;;;24.00;1.00;;;;;;5036402;28;20228;-78
2023/06/09 11:07:11;;;;;;;13.20;9.48;;;23.80;99.90;;;;;;5035885;28;20577;-78
2023/06/09 11:09:37;;;;;;;9.75;8.50;;;23.60;99.90;;;;;;5038829;28;20186;-77
2023/06/09 11:12:03;;;;;;;8.93;8.20;;;23.40;99.90;;;;;;5038978;28;20187;-78
2023/06/09 11:14:47;;;;;;;9.35;8.05;;;23.10;99.90;;;;;;5038358;28;20178;-78
2023/06/09 11:17:37;;;;;;;9.88;9.02;;;22.70;99.90;;;;;;5037125;28;20178;-78
2023/06/09 11:20:06;;;;;;;9.25;8.52;;;22.30;99.90;;;;;;5038707;28;20589;-80
2023/06/09 11:22:41;;;;;;;10.10;8.65;;;22.10;99.90;;;;;;5041165;28;20248;-80
2023/06/09 11:25:08;;;;;;;9.07;7.82;;;22.20;99.90;;;;;;5040715;28;20181;-80
2023/06/09 11:27:34;;;;;;;10.07;9.18;;;22.50;1.00;;;;;;5041479;28;20229;-80
2023/06/09 11:30:07;;;;;;;9.85;9.05;;;22.70;1.00;;;;;;5040995;28;20171;-80
2023/06/09 11:32:53;;;;;;;10.63;9.43;;;22.80;1.00;;;;;;5039877;28;20194;-80
2023/06/09 11:35:59;;;;;;;9.82;8.93;;;22.80;99.90;;;;;;5041179;28;20546;-80
2023/06/09 11:38:23;;;;;;;8.43;7.70;;;22.80;99.90;;;;;;5037658;28;20340;-80
2023/06/09 11:40:51;;;;;;;10.05;9.23;;;22.90;1.00;;;;;;5040437;28;20166;-80
2023/06/09 11:43:19;;;;;;;10.65;9.73;;;23.10;99.90;;;;;;5039138;28;20195;-80
2023/06/09 11:45:45;;;;;;;10.52;9.38;;;23.30;99.90;;;;;;5039190;28;20238;-80
2023/06/09 11:48:11;;;;;;;8.88;8.10;;;23.50;99.90;;;;;;5039664;28;20170;-80
2023/06/09 11:50:42;;;;;;;7.50;6.80;;;23.60;99.90;;;;;;5040374;28;20193;-80
2023/06/09 11:53:18;;;;;;;8.88;8.07;;;23.60;1.00;;;;;;5054848;22;20290;-78
2023/06/09 11:55:45;;;;;;;7.38;6.78;;;23.60;99.90;;;;;;5038280;28;20256;-78
2023/06/09 11:58:12;;;;;;;7.95;7.18;;;23.30;99.90;;;;;;5055849;28;20173;-78
2023/06/09 12:00:40;;;;;;;7.00;6.40;;;23.20;1.00;;;;;;5055432;28;20170;-77
2023/06/09 12:03:07;;;;;;;7.40;6.70;;;23.00;1.00;;;;;;5049476;28;20189;-78
2023/06/09 12:05:33;;;;;;;9.25;8.35;;;22.60;1.00;;;;;;5055636;28;20177;-77
2023/06/09 12:08:00;;;;;;;8.18;7.38;;;22.40;1.00;;;;;;5055031;28;20233;-77
2023/06/09 12:10:27;;;;;;;6.60;6.00;;;22.30;1.00;;;;;;5054013;28;20174;-77
2023/06/09 12:12:59;;;;;;;6.60;6.00;;;22.20;1.00;;;;;;5054687;28;20225;-77
2023/06/09 12:15:26;;;;;;;6.95;6.03;;;22.30;1.00;;;;;;5054710;28;20176;-77
2023/06/09 12:17:56;;;;;;;6.03;5.53;;;22.40;99.90;;;;;;5056027;28;20181;-78
2023/06/09 12:20:29;;;;;;;5.90;5.30;;;22.50;1.00;;;;;;5053216;28;20185;-76
2023/06/09 12:23:03;;;;;;;5.30;4.90;;;22.40;99.90;;;;;;5054844;28;20551;-77
2023/06/09 12:25:31;;;;;;;5.38;4.63;;;22.30;1.00;;;;;;5055646;28;20251;-77
2023/06/09 12:28:19;;;;;;;5.20;4.70;;;22.30;1.00;;;;;;5055722;28;20189;-77
2023/06/09 12:30:53;;;;;;;5.00;4.60;;;22.10;99.90;;;;;;5055116;28;20177;-77
2023/06/09 12:33:23;;;;;;;5.85;5.25;;;22.10;99.90;;;;;;5055124;28;20197;-77
2023/06/09 12:35:54;;;;;;;5.07;4.57;;;22.00;99.90;;;;;;5054793;28;20259;-77
2023/06/09 12:38:22;;;;;;;5.13;4.72;;;21.90;1.00;;;;;;5053840;28;20672;-77
2023/06/09 12:40:55;;;;;;;5.80;5.20;;;22.20;1.00;;;;;;5036932;28;20170;-77
2023/06/09 12:43:25;;;;;;;5.80;5.30;;;22.20;99.90;;;;;;5034073;28;20225;-77
2023/06/09 12:45:58;;;;;;;5.20;4.70;;;22.10;99.90;;;;;;5034961;28;20177;-80
2023/06/09 12:48:24;;;;;;;5.60;5.10;;;22.20;99.90;;;;;;5033059;28;20185;-79
2023/06/09 12:50:50;;;;;;;5.35;4.85;;;22.20;1.00;;;;;;5032407;28;20170;-79